sensor_id;sensor_type;location;lat;lon;timestamp;temperature;humidity
6988;DHT22;3534;49.960;8.018;2022-11-15T00:01:27;10.80;99.90
6988;DHT22;3534;49.960;8.018;2022-11-15T00:03:53;10.80;99.90
6988;DHT22;3534;49.960;8.018;2022-11-15T00:06:21;10.70;99.90
6988;DHT22;3534;49.960;8.018;2022-11-15T00:08:48;10.70;99.90
6988;DHT22;3534;49.960;8.018;2022-11-15T00:11:15;10.80;99.90
6988;DHT22;3534;49.960;8.018;2022-11-15T00:13:42;10.80;99.90
6988;DHT22;3534;49.960;8.018;2022-11-15T00:16:09;10.80;99.90
6988;DHT22;3534;49.960;8.018;2022-11-15T00:18:37;10.80;99.90
6988;DHT22;3534;49.960;8.018;2022-11-15T00:21:05;10.80;99.90
6988;DHT22;3534;49.960;8.018;2022-11-15T00:23:34;10.80;99.90
6988;DHT22;3534;49.960;8.018;2022-11-15T00:26:01;10.90;99.90
6988;DHT22;3534;49.960;8.018;2022-11-15T00:28:28;10.80;99.90
6988;DHT22;3534;49.960;8.018;2022-11-15T00:31:00;10.80;99.90
6988;DHT22;3534;49.960;8.018;2022-11-15T00:33:26;10.80;99.90
6988;DHT22;3534;49.960;8.018;2022-11-15T00:35:53;10.80;99.90
6988;DHT22;3534;49.960;8.018;2022-11-15T00:38:20;10.80;99.90
6988;DHT22;3534;49.960;8.018;2022-11-15T00:40:48;10.80;99.90
6988;DHT22;3534;49.960;8.018;2022-11-15T00:43:14;10.80;99.90
6988;DHT22;3534;49.960;8.018;2022-11-15T00:45:41;10.80;99.90
6988;DHT22;3534;49.960;8.018;2022-11-15T00:48:08;10.80;99.90
6988;DHT22;3534;49.960;8.018;2022-11-15T00:50:36;10.90;99.90
6988;DHT22;3534;49.960;8.018;2022-11-15T00:53:02;10.90;99.90
6988;DHT22;3534;49.960;8.018;2022-11-15T00:55:29;10.90;99.90
6988;DHT22;3534;49.960;8.018;2022-11-15T00:57:57;10.90;99.90
6988;DHT22;3534;49.960;8.018;2022-11-15T01:00:24;10.90;99.90
6988;DHT22;3534;49.960;8.018;2022-11-15T01:02:50;10.90;99.90
6988;DHT22;3534;49.960;8.018;2022-11-15T01:05:17;10.90;99.90
6988;DHT22;3534;49.960;8.018;2022-11-15T01:07:44;10.90;99.90
6988;DHT22;3534;49.960;8.018;2022-11-15T01:10:11;11.00;99.90
6988;DHT22;3534;49.960;8.018;2022-11-15T01:12:38;11.00;99.90
6988;DHT22;3534;49.960;8.018;2022-11-15T01:15:07;11.00;99.90
6988;DHT22;3534;49.960;8.018;2022-11-15T01:17:33;11.00;99.90
6988;DHT22;3534;49.960;8.018;2022-11-15T01:20:00;11.00;99.90
6988;DHT22;3534;49.960;8.018;2022-11-15T01:22:27;11.00;99.90
6988;DHT22;3534;49.960;8.018;2022-11-15T01:24:54;11.00;99.90
6988;DHT22;3534;49.960;8.018;2022-11-15T01:27:20;11.00;99.90
6988;DHT22;3534;49.960;8.018;2022-11-15T01:29:47;11.00;99.90
6988;DHT22;3534;49.960;8.018;2022-11-15T01:32:15;11.00;99.90
6988;DHT22;3534;49.960;8.018;2022-11-15T01:34:42;11.00;99.90
6988;DHT22;3534;49.960;8.018;2022-11-15T01:37:09;11.00;99.90
6988;DHT22;3534;49.960;8.018;2022-11-15T01:39:35;11.00;99.90
6988;DHT22;3534;49.960;8.018;2022-11-15T01:42:03;11.00;99.90
6988;DHT22;3534;49.960;8.018;2022-11-15T01:44:41;11.00;99.90
6988;DHT22;3534;49.960;8.018;2022-11-15T01:47:12;11.00;99.90
6988;DHT22;3534;49.960;8.018;2022-11-15T01:49:45;11.10;99.90
6988;DHT22;3534;49.960;8.018;2022-11-15T01:52:17;11.10;99.90
6988;DHT22;3534;49.960;8.018;2022-11-15T01:54:45;11.10;99.90
6988;DHT22;3534;49.960;8.018;2022-11-15T01:57:13;11.00;99.90
6988;DHT22;3534;49.960;8.018;2022-11-15T01:59:42;10.90;99.90
6988;DHT22;3534;49.960;8.018;2022-11-15T02:02:10;10.90;99.90
6988;DHT22;3534;49.960;8.018;2022-11-15T02:04:41;10.90;99.90
6988;DHT22;3534;49.960;8.018;2022-11-15T02:07:11;10.90;99.90
6988;DHT22;3534;49.960;8.018;2022-11-15T02:09:38;11.00;99.90
6988;DHT22;3534;49.960;8.018;2022-11-15T02:12:06;11.00;99.90
6988;DHT22;3534;49.960;8.018;2022-11-15T02:14:33;11.00;99.90
6988;DHT22;3534;49.960;8.018;2022-11-15T02:17:10;11.00;99.90
6988;DHT22;3534;49.960;8.018;2022-11-15T02:22:46;11.00;99.90
6988;DHT22;3534;49.960;8.018;2022-11-15T02:25:36;11.00;99.90
6988;DHT22;3534;49.960;8.018;2022-11-15T02:28:33;11.00;99.90
6988;DHT22;3534;49.960;8.018;2022-11-15T02:31:09;11.10;99.90
6988;DHT22;3534;49.960;8.018;2022-11-15T02:33:43;11.10;99.90
6988;DHT22;3534;49.960;8.018;2022-11-15T02:36:18;11.10;99.90
6988;DHT22;3534;49.960;8.018;2022-11-15T02:38:57;11.10;99.90
6988;DHT22;3534;49.960;8.018;2022-11-15T02:41:29;11.10;99.90
6988;DHT22;3534;49.960;8.018;2022-11-15T02:44:00;11.00;99.90
6988;DHT22;3534;49.960;8.018;2022-11-15T02:46:33;11.00;99.90
6988;DHT22;3534;49.960;8.018;2022-11-15T02:49:19;11.00;99.90
6988;DHT22;3534;49.960;8.018;2022-11-15T02:52:06;11.00;99.90
6988;DHT22;3534;49.960;8.018;2022-11-15T02:54:33;11.00;99.90
6988;DHT22;3534;49.960;8.018;2022-11-15T02:57:03;11.00;99.90
6988;DHT22;3534;49.960;8.018;2022-11-15T03:00:07;11.00;99.90
6988;DHT22;3534;49.960;8.018;2022-11-15T03:02:46;11.00;99.90
6988;DHT22;3534;49.960;8.018;2022-11-15T03:05:19;11.00;99.90
6988;DHT22;3534;49.960;8.018;2022-11-15T03:07:54;11.00;99.90
6988;DHT22;3534;49.960;8.018;2022-11-15T03:10:26;11.00;99.90
6988;DHT22;3534;49.960;8.018;2022-11-15T03:13:02;11.00;99.90
6988;DHT22;3534;49.960;8.018;2022-11-15T03:15:37;11.00;99.90
6988;DHT22;3534;49.960;8.018;2022-11-15T03:18:12;11.00;99.90
6988;DHT22;3534;49.960;8.018;2022-11-15T03:20:42;11.00;99.90
6988;DHT22;3534;49.960;8.018;2022-11-15T03:23:10;11.00;99.90
6988;DHT22;3534;49.960;8.018;2022-11-15T03:25:40;10.90;99.90
6988;DHT22;3534;49.960;8.018;2022-11-15T03:28:11;10.90;99.90
6988;DHT22;3534;49.960;8.018;2022-11-15T03:30:39;10.80;99.90
6988;DHT22;3534;49.960;8.018;2022-11-15T03:33:08;10.70;99.90
6988;DHT22;3534;49.960;8.018;2022-11-15T03:35:40;10.70;99.90
6988;DHT22;3534;49.960;8.018;2022-11-15T03:38:13;10.70;99.90
6988;DHT22;3534;49.960;8.018;2022-11-15T03:40:44;10.70;99.90
6988;DHT22;3534;49.960;8.018;2022-11-15T03:43:16;10.70;99.90
6988;DHT22;3534;49.960;8.018;2022-11-15T03:45:53;10.70;99.90
6988;DHT22;3534;49.960;8.018;2022-11-15T03:48:25;10.80;99.90
6988;DHT22;3534;49.960;8.018;2022-11-15T03:50:53;10.80;99.90
6988;DHT22;3534;49.960;8.018;2022-11-15T03:53:20;10.70;99.90
6988;DHT22;3534;49.960;8.018;2022-11-15T03:55:47;10.60;99.90
6988;DHT22;3534;49.960;8.018;2022-11-15T03:58:14;10.60;99.90
6988;DHT22;3534;49.960;8.018;2022-11-15T04:00:40;10.60;99.90
6988;DHT22;3534;49.960;8.018;2022-11-15T04:03:07;10.70;99.90
6988;DHT22;3534;49.960;8.018;2022-11-15T04:05:35;10.70;99.90
6988;DHT22;3534;49.960;8.018;2022-11-15T04:08:02;10.70;99.90
6988;DHT22;3534;49.960;8.018;2022-11-15T04:10:29;10.80;99.90
6988;DHT22;3534;49.960;8.018;2022-11-15T04:12:56;10.80;99.90
6988;DHT22;3534;49.960;8.018;2022-11-15T04:15:23;10.80;99.90
6988;DHT22;3534;49.960;8.018;2022-11-15T04:17:51;10.80;99.90
6988;DHT22;3534;49.960;8.018;2022-11-15T04:20:20;10.80;99.90
6988;DHT22;3534;49.960;8.018;2022-11-15T04:23:09;10.90;99.90
6988;DHT22;3534;49.960;8.018;2022-11-15T04:25:55;10.90;99.90
6988;DHT22;3534;49.960;8.018;2022-11-15T04:28:22;10.90;99.90
6988;DHT22;3534;49.960;8.018;2022-11-15T04:30:49;10.80;99.90
6988;DHT22;3534;49.960;8.018;2022-11-15T04:33:16;10.80;99.90
6988;DHT22;3534;49.960;8.018;2022-11-15T04:35:42;10.80;99.90
6988;DHT22;3534;49.960;8.018;2022-11-15T04:38:30;10.80;99.90
6988;DHT22;3534;49.960;8.018;2022-11-15T04:40:56;10.80;99.90
6988;DHT22;3534;49.960;8.018;2022-11-15T04:43:23;10.80;99.90
6988;DHT22;3534;49.960;8.018;2022-11-15T04:45:50;10.90;99.90
6988;DHT22;3534;49.960;8.018;2022-11-15T04:48:16;10.90;99.90
6988;DHT22;3534;49.960;8.018;2022-11-15T04:50:43;10.80;99.90
6988;DHT22;3534;49.960;8.018;2022-11-15T04:53:10;10.80;99.90
6988;DHT22;3534;49.960;8.018;2022-11-15T04:55:38;10.80;99.90
6988;DHT22;3534;49.960;8.018;2022-11-15T04:58:04;10.80;99.90
6988;DHT22;3534;49.960;8.018;2022-11-15T05:00:31;10.80;99.90
6988;DHT22;3534;49.960;8.018;2022-11-15T05:02:58;10.80;99.90
6988;DHT22;3534;49.960;8.018;2022-11-15T05:05:42;10.80;99.90
6988;DHT22;3534;49.960;8.018;2022-11-15T05:08:09;10.80;99.90
6988;DHT22;3534;49.960;8.018;2022-11-15T05:10:35;10.80;99.90
6988;DHT22;3534;49.960;8.018;2022-11-15T05:13:03;10.80;99.90
6988;DHT22;3534;49.960;8.018;2022-11-15T05:15:30;10.80;99.90
6988;DHT22;3534;49.960;8.018;2022-11-15T05:17:58;10.80;99.90
6988;DHT22;3534;49.960;8.018;2022-11-15T05:20:25;10.80;99.90
6988;DHT22;3534;49.960;8.018;2022-11-15T05:22:52;10.80;99.90
6988;DHT22;3534;49.960;8.018;2022-11-15T05:25:19;10.80;99.90
6988;DHT22;3534;49.960;8.018;2022-11-15T05:27:46;10.80;99.90
6988;DHT22;3534;49.960;8.018;2022-11-15T05:30:15;10.80;99.90
6988;DHT22;3534;49.960;8.018;2022-11-15T05:32:43;10.80;99.90
6988;DHT22;3534;49.960;8.018;2022-11-15T05:35:14;10.80;99.90
6988;DHT22;3534;49.960;8.018;2022-11-15T05:37:43;10.80;99.90
6988;DHT22;3534;49.960;8.018;2022-11-15T05:40:10;10.80;99.90
6988;DHT22;3534;49.960;8.018;2022-11-15T05:42:37;10.80;99.90
6988;DHT22;3534;49.960;8.018;2022-11-15T05:45:06;10.80;99.90
6988;DHT22;3534;49.960;8.018;2022-11-15T05:47:36;10.80;99.90
6988;DHT22;3534;49.960;8.018;2022-11-15T05:50:05;10.80;99.90
6988;DHT22;3534;49.960;8.018;2022-11-15T05:52:34;10.80;99.90
6988;DHT22;3534;49.960;8.018;2022-11-15T05:55:03;10.80;99.90
6988;DHT22;3534;49.960;8.018;2022-11-15T05:57:30;10.80;99.90
6988;DHT22;3534;49.960;8.018;2022-11-15T05:59:58;10.80;99.90
6988;DHT22;3534;49.960;8.018;2022-11-15T06:02:25;10.80;99.90
6988;DHT22;3534;49.960;8.018;2022-11-15T06:04:53;10.80;99.90
6988;DHT22;3534;49.960;8.018;2022-11-15T06:07:19;10.80;99.90
6988;DHT22;3534;49.960;8.018;2022-11-15T06:09:46;10.80;99.90
6988;DHT22;3534;49.960;8.018;2022-11-15T06:12:13;10.80;99.90
6988;DHT22;3534;49.960;8.018;2022-11-15T06:14:40;10.80;99.90
6988;DHT22;3534;49.960;8.018;2022-11-15T06:17:06;10.80;99.90
6988;DHT22;3534;49.960;8.018;2022-11-15T06:19:33;10.80;99.90
6988;DHT22;3534;49.960;8.018;2022-11-15T06:22:01;10.80;99.90
6988;DHT22;3534;49.960;8.018;2022-11-15T06:24:28;10.80;99.90
6988;DHT22;3534;49.960;8.018;2022-11-15T06:26:55;10.80;99.90
6988;DHT22;3534;49.960;8.018;2022-11-15T06:29:22;10.70;99.90
6988;DHT22;3534;49.960;8.018;2022-11-15T06:31:49;10.80;99.90
6988;DHT22;3534;49.960;8.018;2022-11-15T06:34:16;10.70;99.90
6988;DHT22;3534;49.960;8.018;2022-11-15T06:36:42;10.70;99.90
6988;DHT22;3534;49.960;8.018;2022-11-15T06:39:11;10.70;99.90
6988;DHT22;3534;49.960;8.018;2022-11-15T06:41:37;10.70;99.90
6988;DHT22;3534;49.960;8.018;2022-11-15T06:44:04;10.70;99.90
6988;DHT22;3534;49.960;8.018;2022-11-15T06:46:31;10.70;99.90
6988;DHT22;3534;49.960;8.018;2022-11-15T06:48:57;10.70;99.90
6988;DHT22;3534;49.960;8.018;2022-11-15T06:51:24;10.70;99.90
6988;DHT22;3534;49.960;8.018;2022-11-15T06:53:51;10.70;99.90
6988;DHT22;3534;49.960;8.018;2022-11-15T06:56:19;10.70;99.90
6988;DHT22;3534;49.960;8.018;2022-11-15T06:58:45;10.70;99.90
6988;DHT22;3534;49.960;8.018;2022-11-15T07:01:12;10.70;99.90
6988;DHT22;3534;49.960;8.018;2022-11-15T07:03:41;10.70;99.90
6988;DHT22;3534;49.960;8.018;2022-11-15T07:06:09;10.70;99.90
6988;DHT22;3534;49.960;8.018;2022-11-15T07:08:36;10.70;99.90
6988;DHT22;3534;49.960;8.018;2022-11-15T07:11:06;10.70;99.90
6988;DHT22;3534;49.960;8.018;2022-11-15T07:13:35;10.70;99.90
6988;DHT22;3534;49.960;8.018;2022-11-15T07:16:03;10.70;99.90
6988;DHT22;3534;49.960;8.018;2022-11-15T07:18:30;10.70;99.90
6988;DHT22;3534;49.960;8.018;2022-11-15T07:21:01;10.70;99.90
6988;DHT22;3534;49.960;8.018;2022-11-15T07:23:28;10.70;99.90
6988;DHT22;3534;49.960;8.018;2022-11-15T07:25:56;10.70;99.90
6988;DHT22;3534;49.960;8.018;2022-11-15T07:28:23;10.70;99.90
6988;DHT22;3534;49.960;8.018;2022-11-15T07:30:51;10.70;99.90
6988;DHT22;3534;49.960;8.018;2022-11-15T07:33:18;10.70;99.90
6988;DHT22;3534;49.960;8.018;2022-11-15T07:35:45;10.70;99.90
6988;DHT22;3534;49.960;8.018;2022-11-15T07:38:14;10.70;99.90
6988;DHT22;3534;49.960;8.018;2022-11-15T07:40:44;10.60;99.90
6988;DHT22;3534;49.960;8.018;2022-11-15T07:43:11;10.60;99.90
6988;DHT22;3534;49.960;8.018;2022-11-15T07:45:41;10.60;99.90
6988;DHT22;3534;49.960;8.018;2022-11-15T07:48:09;10.60;99.90
6988;DHT22;3534;49.960;8.018;2022-11-15T07:50:36;10.70;99.90
6988;DHT22;3534;49.960;8.018;2022-11-15T07:53:03;10.60;99.90
6988;DHT22;3534;49.960;8.018;2022-11-15T07:55:30;10.60;99.90
6988;DHT22;3534;49.960;8.018;2022-11-15T07:58:01;10.60;99.90
6988;DHT22;3534;49.960;8.018;2022-11-15T08:00:28;10.60;99.90
6988;DHT22;3534;49.960;8.018;2022-11-15T08:03:01;10.70;99.90
6988;DHT22;3534;49.960;8.018;2022-11-15T08:05:30;10.70;99.90
6988;DHT22;3534;49.960;8.018;2022-11-15T08:07:57;10.80;99.90
6988;DHT22;3534;49.960;8.018;2022-11-15T08:10:24;10.80;99.90
6988;DHT22;3534;49.960;8.018;2022-11-15T08:12:57;10.90;99.90
6988;DHT22;3534;49.960;8.018;2022-11-15T08:15:24;10.90;99.90
6988;DHT22;3534;49.960;8.018;2022-11-15T08:17:54;11.00;99.90
6988;DHT22;3534;49.960;8.018;2022-11-15T08:20:21;11.00;99.90
6988;DHT22;3534;49.960;8.018;2022-11-15T08:22:49;11.10;99.90
6988;DHT22;3534;49.960;8.018;2022-11-15T08:25:16;11.10;99.90
6988;DHT22;3534;49.960;8.018;2022-11-15T08:27:43;11.20;99.90
6988;DHT22;3534;49.960;8.018;2022-11-15T08:30:11;11.10;99.90
6988;DHT22;3534;49.960;8.018;2022-11-15T08:32:38;11.10;99.90
6988;DHT22;3534;49.960;8.018;2022-11-15T08:35:06;11.10;99.90
6988;DHT22;3534;49.960;8.018;2022-11-15T08:37:33;11.10;99.90
6988;DHT22;3534;49.960;8.018;2022-11-15T08:40:02;11.10;99.90
6988;DHT22;3534;49.960;8.018;2022-11-15T08:42:29;11.20;99.90
6988;DHT22;3534;49.960;8.018;2022-11-15T08:44:56;11.20;99.90
6988;DHT22;3534;49.960;8.018;2022-11-15T08:47:22;11.30;99.90
6988;DHT22;3534;49.960;8.018;2022-11-15T08:49:49;11.30;99.90
6988;DHT22;3534;49.960;8.018;2022-11-15T08:52:16;11.30;99.90
6988;DHT22;3534;49.960;8.018;2022-11-15T08:54:43;11.40;99.90
6988;DHT22;3534;49.960;8.018;2022-11-15T08:57:11;11.40;99.90
6988;DHT22;3534;49.960;8.018;2022-11-15T08:59:37;11.50;99.90
6988;DHT22;3534;49.960;8.018;2022-11-15T09:02:05;11.50;99.90
6988;DHT22;3534;49.960;8.018;2022-11-15T09:04:32;11.60;99.90
6988;DHT22;3534;49.960;8.018;2022-11-15T09:06:59;11.60;99.90
6988;DHT22;3534;49.960;8.018;2022-11-15T09:09:25;11.60;99.90
6988;DHT22;3534;49.960;8.018;2022-11-15T09:11:52;11.70;99.90
6988;DHT22;3534;49.960;8.018;2022-11-15T09:14:20;11.60;99.90
6988;DHT22;3534;49.960;8.018;2022-11-15T09:16:47;11.60;99.90
6988;DHT22;3534;49.960;8.018;2022-11-15T09:19:13;11.60;99.90
6988;DHT22;3534;49.960;8.018;2022-11-15T09:21:40;11.70;99.90
6988;DHT22;3534;49.960;8.018;2022-11-15T09:24:07;11.70;99.90
6988;DHT22;3534;49.960;8.018;2022-11-15T09:26:34;11.70;99.90
6988;DHT22;3534;49.960;8.018;2022-11-15T09:29:01;11.70;99.90
6988;DHT22;3534;49.960;8.018;2022-11-15T09:31:29;11.70;99.90
6988;DHT22;3534;49.960;8.018;2022-11-15T09:33:57;11.80;99.90
6988;DHT22;3534;49.960;8.018;2022-11-15T09:36:24;11.80;99.90
6988;DHT22;3534;49.960;8.018;2022-11-15T09:38:51;11.90;99.90
6988;DHT22;3534;49.960;8.018;2022-11-15T09:41:54;11.90;99.90
6988;DHT22;3534;49.960;8.018;2022-11-15T09:44:41;12.00;99.90
6988;DHT22;3534;49.960;8.018;2022-11-15T09:47:33;12.10;99.90
6988;DHT22;3534;49.960;8.018;2022-11-15T09:50:09;12.10;99.90
6988;DHT22;3534;49.960;8.018;2022-11-15T09:52:37;12.10;99.90
6988;DHT22;3534;49.960;8.018;2022-11-15T09:55:08;12.10;99.90
6988;DHT22;3534;49.960;8.018;2022-11-15T09:57:39;12.20;99.90
6988;DHT22;3534;49.960;8.018;2022-11-15T10:00:12;12.20;99.90
6988;DHT22;3534;49.960;8.018;2022-11-15T10:02:54;12.20;99.90
6988;DHT22;3534;49.960;8.018;2022-11-15T10:05:24;12.20;99.90
6988;DHT22;3534;49.960;8.018;2022-11-15T10:07:59;12.30;99.90
6988;DHT22;3534;49.960;8.018;2022-11-15T10:10:32;12.30;99.90
6988;DHT22;3534;49.960;8.018;2022-11-15T10:13:02;12.30;99.90
6988;DHT22;3534;49.960;8.018;2022-11-15T10:15:30;12.30;99.90
6988;DHT22;3534;49.960;8.018;2022-11-15T10:18:09;12.30;99.90
6988;DHT22;3534;49.960;8.018;2022-11-15T10:20:47;12.30;99.90
6988;DHT22;3534;49.960;8.018;2022-11-15T10:23:16;12.30;99.90
6988;DHT22;3534;49.960;8.018;2022-11-15T10:25:43;12.30;99.90
6988;DHT22;3534;49.960;8.018;2022-11-15T10:28:15;12.30;99.90
6988;DHT22;3534;49.960;8.018;2022-11-15T10:30:44;12.30;99.90
6988;DHT22;3534;49.960;8.018;2022-11-15T10:33:25;12.40;99.90
6988;DHT22;3534;49.960;8.018;2022-11-15T10:36:15;12.40;99.90
6988;DHT22;3534;49.960;8.018;2022-11-15T10:38:53;12.50;99.90
6988;DHT22;3534;49.960;8.018;2022-11-15T10:41:22;12.50;99.90
6988;DHT22;3534;49.960;8.018;2022-11-15T10:44:03;12.60;99.90
6988;DHT22;3534;49.960;8.018;2022-11-15T10:46:35;12.70;99.90
6988;DHT22;3534;49.960;8.018;2022-11-15T10:49:13;12.80;99.90
6988;DHT22;3534;49.960;8.018;2022-11-15T10:51:42;12.80;99.90
6988;DHT22;3534;49.960;8.018;2022-11-15T10:54:12;12.90;99.90
6988;DHT22;3534;49.960;8.018;2022-11-15T10:56:41;13.00;99.90
6988;DHT22;3534;49.960;8.018;2022-11-15T10:59:16;13.10;99.90
6988;DHT22;3534;49.960;8.018;2022-11-15T11:01:48;13.20;99.90
6988;DHT22;3534;49.960;8.018;2022-11-15T11:04:16;13.20;99.90
6988;DHT22;3534;49.960;8.018;2022-11-15T11:06:48;13.30;99.90
6988;DHT22;3534;49.960;8.018;2022-11-15T11:09:31;13.30;99.90
6988;DHT22;3534;49.960;8.018;2022-11-15T11:11:59;13.30;99.90
6988;DHT22;3534;49.960;8.018;2022-11-15T11:14:27;13.40;99.90
6988;DHT22;3534;49.960;8.018;2022-11-15T11:17:03;13.40;99.90
6988;DHT22;3534;49.960;8.018;2022-11-15T11:19:43;13.50;99.90
6988;DHT22;3534;49.960;8.018;2022-11-15T11:22:17;13.50;99.90
6988;DHT22;3534;49.960;8.018;2022-11-15T11:25:04;13.60;99.90
6988;DHT22;3534;49.960;8.018;2022-11-15T11:27:42;13.70;99.90
6988;DHT22;3534;49.960;8.018;2022-11-15T11:30:13;13.70;99.90
6988;DHT22;3534;49.960;8.018;2022-11-15T11:32:59;13.80;99.90
6988;DHT22;3534;49.960;8.018;2022-11-15T11:35:32;13.90;99.90
6988;DHT22;3534;49.960;8.018;2022-11-15T11:38:15;13.90;99.90
6988;DHT22;3534;49.960;8.018;2022-11-15T11:40:49;14.00;99.90
6988;DHT22;3534;49.960;8.018;2022-11-15T11:43:23;14.00;99.90
6988;DHT22;3534;49.960;8.018;2022-11-15T11:48:47;14.10;99.90
6988;DHT22;3534;49.960;8.018;2022-11-15T11:51:21;14.10;99.90
6988;DHT22;3534;49.960;8.018;2022-11-15T11:53:53;14.20;99.90
6988;DHT22;3534;49.960;8.018;2022-11-15T11:56:26;14.20;99.90
6988;DHT22;3534;49.960;8.018;2022-11-15T11:58:56;14.20;99.90
6988;DHT22;3534;49.960;8.018;2022-11-15T12:01:28;14.30;99.90
6988;DHT22;3534;49.960;8.018;2022-11-15T12:04:01;14.30;99.90
6988;DHT22;3534;49.960;8.018;2022-11-15T12:06:36;14.30;99.90
6988;DHT22;3534;49.960;8.018;2022-11-15T12:09:12;14.40;99.90
6988;DHT22;3534;49.960;8.018;2022-11-15T12:11:50;14.40;99.90
6988;DHT22;3534;49.960;8.018;2022-11-15T12:14:27;14.40;99.90
6988;DHT22;3534;49.960;8.018;2022-11-15T12:16:55;14.40;99.90
6988;DHT22;3534;49.960;8.018;2022-11-15T12:19:23;14.40;99.90
6988;DHT22;3534;49.960;8.018;2022-11-15T12:21:57;14.40;99.90
6988;DHT22;3534;49.960;8.018;2022-11-15T12:24:29;14.40;99.90
6988;DHT22;3534;49.960;8.018;2022-11-15T12:27:02;14.50;99.90
6988;DHT22;3534;49.960;8.018;2022-11-15T12:29:35;14.50;99.90
6988;DHT22;3534;49.960;8.018;2022-11-15T12:32:03;14.50;99.90
6988;DHT22;3534;49.960;8.018;2022-11-15T12:34:45;14.50;99.90
6988;DHT22;3534;49.960;8.018;2022-11-15T12:40:36;14.60;99.90
6988;DHT22;3534;49.960;8.018;2022-11-15T12:46:05;14.60;99.90
6988;DHT22;3534;49.960;8.018;2022-11-15T12:48:57;14.60;99.90
6988;DHT22;3534;49.960;8.018;2022-11-15T12:54:58;14.60;99.90
6988;DHT22;3534;49.960;8.018;2022-11-15T12:57:41;14.60;99.90
6988;DHT22;3534;49.960;8.018;2022-11-15T13:03:26;14.70;99.90
6988;DHT22;3534;49.960;8.018;2022-11-15T13:06:04;14.70;99.90
6988;DHT22;3534;49.960;8.018;2022-11-15T13:08:46;14.80;99.90
6988;DHT22;3534;49.960;8.018;2022-11-15T13:11:49;14.80;99.90
6988;DHT22;3534;49.960;8.018;2022-11-15T13:14:44;14.80;99.90
6988;DHT22;3534;49.960;8.018;2022-11-15T13:17:27;14.80;99.90
6988;DHT22;3534;49.960;8.018;2022-11-15T13:22:44;14.90;99.90
6988;DHT22;3534;49.960;8.018;2022-11-15T13:25:21;14.90;99.90
6988;DHT22;3534;49.960;8.018;2022-11-15T13:27:50;14.90;99.90
6988;DHT22;3534;49.960;8.018;2022-11-15T13:30:22;14.90;99.90
6988;DHT22;3534;49.960;8.018;2022-11-15T13:32:50;14.90;99.90
6988;DHT22;3534;49.960;8.018;2022-11-15T13:35:22;14.90;99.90
6988;DHT22;3534;49.960;8.018;2022-11-15T13:37:49;14.90;99.90
6988;DHT22;3534;49.960;8.018;2022-11-15T13:40:24;14.90;99.90
6988;DHT22;3534;49.960;8.018;2022-11-15T13:42:53;14.90;99.90
6988;DHT22;3534;49.960;8.018;2022-11-15T13:45:21;14.80;99.90
6988;DHT22;3534;49.960;8.018;2022-11-15T13:47:53;14.80;99.90
6988;DHT22;3534;49.960;8.018;2022-11-15T13:50:22;14.80;99.90
6988;DHT22;3534;49.960;8.018;2022-11-15T13:52:52;14.80;99.90
6988;DHT22;3534;49.960;8.018;2022-11-15T13:55:21;14.70;99.90
6988;DHT22;3534;49.960;8.018;2022-11-15T13:57:51;14.70;99.90
6988;DHT22;3534;49.960;8.018;2022-11-15T14:00:29;14.70;99.90
6988;DHT22;3534;49.960;8.018;2022-11-15T14:02:57;14.70;99.90
6988;DHT22;3534;49.960;8.018;2022-11-15T14:05:31;14.60;99.90
6988;DHT22;3534;49.960;8.018;2022-11-15T14:08:00;14.60;99.90
6988;DHT22;3534;49.960;8.018;2022-11-15T14:10:29;14.50;99.90
6988;DHT22;3534;49.960;8.018;2022-11-15T14:12:57;14.50;99.90
6988;DHT22;3534;49.960;8.018;2022-11-15T14:15:29;14.50;99.90
6988;DHT22;3534;49.960;8.018;2022-11-15T14:17:56;14.50;99.90
6988;DHT22;3534;49.960;8.018;2022-11-15T14:20:30;14.50;99.90
6988;DHT22;3534;49.960;8.018;2022-11-15T14:22:58;14.50;99.90
6988;DHT22;3534;49.960;8.018;2022-11-15T14:25:26;14.50;99.90
6988;DHT22;3534;49.960;8.018;2022-11-15T14:28:28;14.40;99.90
6988;DHT22;3534;49.960;8.018;2022-11-15T14:30:58;14.40;99.90
6988;DHT22;3534;49.960;8.018;2022-11-15T14:33:28;14.50;99.90
6988;DHT22;3534;49.960;8.018;2022-11-15T14:35:56;14.40;99.90
6988;DHT22;3534;49.960;8.018;2022-11-15T14:38:24;14.40;99.90
6988;DHT22;3534;49.960;8.018;2022-11-15T14:40:51;14.40;99.90
6988;DHT22;3534;49.960;8.018;2022-11-15T14:43:19;14.40;99.90
6988;DHT22;3534;49.960;8.018;2022-11-15T14:45:46;14.40;99.90
6988;DHT22;3534;49.960;8.018;2022-11-15T14:48:14;14.40;99.90
6988;DHT22;3534;49.960;8.018;2022-11-15T14:50:41;14.40;99.90
6988;DHT22;3534;49.960;8.018;2022-11-15T14:53:15;14.30;99.90
6988;DHT22;3534;49.960;8.018;2022-11-15T14:55:43;14.30;99.90
6988;DHT22;3534;49.960;8.018;2022-11-15T14:58:29;14.30;99.90
6988;DHT22;3534;49.960;8.018;2022-11-15T15:00:55;14.30;99.90
6988;DHT22;3534;49.960;8.018;2022-11-15T15:03:23;14.30;99.90
6988;DHT22;3534;49.960;8.018;2022-11-15T15:05:50;14.30;99.90
6988;DHT22;3534;49.960;8.018;2022-11-15T15:08:17;14.30;99.90
6988;DHT22;3534;49.960;8.018;2022-11-15T15:10:45;14.20;99.90
6988;DHT22;3534;49.960;8.018;2022-11-15T15:13:16;14.20;99.90
6988;DHT22;3534;49.960;8.018;2022-11-15T15:15:44;14.20;99.90
6988;DHT22;3534;49.960;8.018;2022-11-15T15:18:10;14.20;99.90
6988;DHT22;3534;49.960;8.018;2022-11-15T15:20:40;14.20;99.90
6988;DHT22;3534;49.960;8.018;2022-11-15T15:23:14;14.20;99.90
6988;DHT22;3534;49.960;8.018;2022-11-15T15:25:41;14.20;99.90
6988;DHT22;3534;49.960;8.018;2022-11-15T15:28:09;14.20;99.90
6988;DHT22;3534;49.960;8.018;2022-11-15T15:30:35;14.20;99.90
6988;DHT22;3534;49.960;8.018;2022-11-15T15:33:02;14.20;99.90
6988;DHT22;3534;49.960;8.018;2022-11-15T15:35:31;14.10;99.90
6988;DHT22;3534;49.960;8.018;2022-11-15T15:38:00;14.10;99.90
6988;DHT22;3534;49.960;8.018;2022-11-15T15:40:28;14.10;99.90
6988;DHT22;3534;49.960;8.018;2022-11-15T15:42:55;14.10;99.90
6988;DHT22;3534;49.960;8.018;2022-11-15T15:45:22;14.10;99.90
6988;DHT22;3534;49.960;8.018;2022-11-15T15:47:49;14.00;99.90
6988;DHT22;3534;49.960;8.018;2022-11-15T15:50:21;14.00;99.90
6988;DHT22;3534;49.960;8.018;2022-11-15T15:52:49;14.00;99.90
6988;DHT22;3534;49.960;8.018;2022-11-15T15:55:17;14.00;99.90
6988;DHT22;3534;49.960;8.018;2022-11-15T15:57:44;14.00;99.90
6988;DHT22;3534;49.960;8.018;2022-11-15T16:00:12;14.00;99.90
6988;DHT22;3534;49.960;8.018;2022-11-15T16:02:39;13.90;99.90
6988;DHT22;3534;49.960;8.018;2022-11-15T16:05:06;14.00;99.90
6988;DHT22;3534;49.960;8.018;2022-11-15T16:07:33;14.00;99.90
6988;DHT22;3534;49.960;8.018;2022-11-15T16:10:00;14.00;99.90
6988;DHT22;3534;49.960;8.018;2022-11-15T16:12:29;14.00;99.90
6988;DHT22;3534;49.960;8.018;2022-11-15T16:14:56;14.00;99.90
6988;DHT22;3534;49.960;8.018;2022-11-15T16:17:26;14.00;99.90
6988;DHT22;3534;49.960;8.018;2022-11-15T16:19:53;14.00;99.90
6988;DHT22;3534;49.960;8.018;2022-11-15T16:22:20;14.00;99.90
6988;DHT22;3534;49.960;8.018;2022-11-15T16:24:47;13.90;99.90
6988;DHT22;3534;49.960;8.018;2022-11-15T16:27:14;13.90;99.90
6988;DHT22;3534;49.960;8.018;2022-11-15T16:29:43;13.90;99.90
6988;DHT22;3534;49.960;8.018;2022-11-15T16:32:10;13.90;99.90
6988;DHT22;3534;49.960;8.018;2022-11-15T16:34:37;13.90;99.90
6988;DHT22;3534;49.960;8.018;2022-11-15T16:37:04;13.90;99.90
6988;DHT22;3534;49.960;8.018;2022-11-15T16:39:31;13.90;99.90
6988;DHT22;3534;49.960;8.018;2022-11-15T16:41:59;13.90;99.90
6988;DHT22;3534;49.960;8.018;2022-11-15T16:44:27;13.90;99.90